sim
Sign-in with your pilot id or email,
or register
Callsign
Passwort

Schedule Details

Flight Number: DLH2131
Departure: Dresden Airport (EDDC) at 05:00
Arrival: Munich Airport (EDDM) at 05:55
Route: Lufthansa Passenger Schedule. Enter filed route here before submitting Pirep.

Weather Information
Getting current METAR information for EDDC 190920Z 14010KT 110V170 CAVOK 18/04 Q1023 NOSIG
Getting current METAR information for EDDM 190920Z 08007KT 040V110 CAVOK 16/09 Q1020 NOSIG

Schedule Frequency

Route Map